createdAt,value
2022-09-29T02:15:44.620Z,995.97
2022-09-29T02:16:43.438Z,995.87
2022-09-29T02:17:43.633Z,995.89
2022-09-29T02:18:43.955Z,995.89
2022-09-29T02:19:44.280Z,995.88
2022-09-29T02:20:44.605Z,995.92
2022-09-29T02:21:44.933Z,995.92
2022-09-29T02:22:45.253Z,995.81
2022-09-29T02:23:45.564Z,995.80
2022-09-29T02:24:45.874Z,995.87
2022-09-29T02:25:46.216Z,995.86
2022-09-29T02:26:46.545Z,995.88
2022-09-29T02:27:46.876Z,995.88
2022-09-29T02:28:47.240Z,995.85
2022-09-29T02:29:47.440Z,995.82
2022-09-29T02:30:47.777Z,995.87
2022-09-29T02:31:48.168Z,995.85
2022-09-29T02:32:48.410Z,995.92
2022-09-29T02:33:48.716Z,995.88
2022-09-29T02:34:49.019Z,995.88
2022-09-29T02:35:49.335Z,995.87
2022-09-29T02:36:49.672Z,995.90
2022-09-29T02:37:49.989Z,995.95
2022-09-29T02:38:50.317Z,995.90
2022-09-29T02:39:50.622Z,996.00
2022-09-29T02:40:51.004Z,995.99
2022-09-29T02:41:51.213Z,995.97
2022-09-29T02:42:51.529Z,996.00
2022-09-29T02:43:51.845Z,996.02
2022-09-29T02:44:52.148Z,995.95
2022-09-29T02:45:52.489Z,995.99
2022-09-29T02:46:52.829Z,995.99
2022-09-29T02:47:53.019Z,996.01
2022-09-29T02:48:53.340Z,996.03
2022-09-29T02:49:53.670Z,996.05
2022-09-29T02:50:53.980Z,996.03
2022-09-29T02:51:54.312Z,995.96
2022-09-29T02:52:54.633Z,995.93
2022-09-29T02:53:54.967Z,995.96
2022-09-29T02:54:55.281Z,995.98
2022-09-29T02:55:55.593Z,995.98
2022-09-29T02:56:55.910Z,995.92
2022-09-29T02:57:56.231Z,995.97
2022-09-29T02:58:56.551Z,995.95
2022-09-29T02:59:56.872Z,996.04
2022-09-29T03:00:57.267Z,995.97
2022-09-29T03:01:57.525Z,996.02
2022-09-29T03:02:57.741Z,996.02
2022-09-29T03:04:02.085Z,996.00
2022-09-29T03:04:59.372Z,996.05
2022-09-29T03:05:58.632Z,996.03
2022-09-29T03:06:58.973Z,996.05
2022-09-29T03:07:59.282Z,996.02
2022-09-29T03:08:59.611Z,996.02
2022-09-29T03:09:59.947Z,996.00
2022-09-29T03:11:00.265Z,995.95
2022-09-29T03:12:00.577Z,995.95
2022-09-29T03:13:00.926Z,996.01
2022-09-29T03:14:01.235Z,996.01
2022-09-29T03:15:01.570Z,996.04
2022-09-29T03:16:01.944Z,996.03
2022-09-29T03:17:02.174Z,996.05
2022-09-29T03:18:03.159Z,996.02
2022-09-29T03:19:02.796Z,996.04
2022-09-29T03:20:03.105Z,996.04
2022-09-29T03:21:03.451Z,996.01
2022-09-29T03:22:03.810Z,996.06
2022-09-29T03:23:04.106Z,996.04
2022-09-29T03:24:04.419Z,996.06
2022-09-29T03:25:04.736Z,996.01
2022-09-29T03:26:05.068Z,996.04
2022-09-29T03:27:05.429Z,996.07
2022-09-29T03:28:05.665Z,996.02
2022-09-29T03:29:05.964Z,996.02
2022-09-29T03:30:06.277Z,996.02
2022-09-29T03:31:06.639Z,996.04
2022-09-29T03:32:06.849Z,996.06
2022-09-29T03:33:07.179Z,996.11
2022-09-29T03:34:07.507Z,996.07
2022-09-29T03:35:07.833Z,996.13
2022-09-29T03:36:08.169Z,996.07
2022-09-29T03:37:08.510Z,996.13
2022-09-29T03:38:08.831Z,996.15
2022-09-29T03:39:09.050Z,996.18
2022-09-29T03:40:09.364Z,996.10
2022-09-29T03:41:09.691Z,996.11
2022-09-29T03:42:10.031Z,996.14
2022-09-29T03:43:10.353Z,996.15
2022-09-29T03:44:10.694Z,996.15
2022-09-29T03:45:11.013Z,996.11
2022-09-29T03:46:11.414Z,996.19
2022-09-29T03:47:11.669Z,996.18
2022-09-29T03:48:11.980Z,996.14
2022-09-29T03:49:12.376Z,996.18
2022-09-29T03:50:12.543Z,996.18
2022-09-29T03:51:12.866Z,996.20
2022-09-29T03:52:13.194Z,996.19
2022-09-29T03:53:13.525Z,996.22
2022-09-29T03:54:13.845Z,996.28
2022-09-29T03:55:14.186Z,996.28
2022-09-29T03:56:14.541Z,996.26
2022-09-29T03:57:14.883Z,996.23
2022-09-29T03:58:15.092Z,996.29
2022-09-29T03:59:15.455Z,996.24
2022-09-29T04:00:15.736Z,996.28
2022-09-29T04:01:16.099Z,996.26
2022-09-29T04:02:16.378Z,996.33
2022-09-29T04:03:16.575Z,996.25
2022-09-29T04:04:16.903Z,996.31
2022-09-29T04:05:17.243Z,996.30
2022-09-29T04:06:17.607Z,996.33
2022-09-29T04:07:17.823Z,996.29
2022-09-29T04:08:18.056Z,996.36
2022-09-29T04:09:18.504Z,996.31
2022-09-29T04:10:18.628Z,996.35
2022-09-29T04:11:19.001Z,996.35
2022-09-29T04:12:19.237Z,996.38
2022-09-29T04:13:20.341Z,996.40
2022-09-29T04:14:19.773Z,996.41
2022-09-29T04:15:20.139Z,996.39
2022-09-29T04:16:20.441Z,996.44
2022-09-29T04:17:20.652Z,996.38
2022-09-29T04:18:20.885Z,996.41
2022-09-29T04:19:21.239Z,996.40
2022-09-29T04:20:21.487Z,996.47
2022-09-29T04:21:21.759Z,996.41
2022-09-29T04:22:21.984Z,996.45
2022-09-29T04:23:22.297Z,996.44
2022-09-29T04:24:22.627Z,996.44
2022-09-29T04:25:22.967Z,996.38
2022-09-29T04:26:23.306Z,996.39
2022-09-29T04:27:23.545Z,996.42
2022-09-29T04:28:23.880Z,996.44
2022-09-29T04:29:24.260Z,996.45
2022-09-29T04:30:24.484Z,996.46
2022-09-29T04:31:24.895Z,996.46
2022-09-29T04:32:25.128Z,996.48
2022-09-29T04:33:25.473Z,996.45
2022-09-29T04:34:25.695Z,996.44
2022-09-29T04:35:25.983Z,996.53
2022-09-29T04:36:26.256Z,996.48
2022-09-29T04:37:26.493Z,996.46
2022-09-29T04:38:26.714Z,996.48
2022-09-29T04:39:27.006Z,996.43
2022-09-29T04:40:27.234Z,996.43
2022-09-29T04:41:27.516Z,996.45
2022-09-29T04:42:27.754Z,996.53
2022-09-29T04:43:28.013Z,996.51
2022-09-29T04:44:28.307Z,996.49
2022-09-29T04:45:28.610Z,996.49
2022-09-29T04:46:28.886Z,996.51
2022-09-29T04:47:29.128Z,996.58
2022-09-29T04:48:32.540Z,996.48
2022-09-29T04:49:30.714Z,996.56
2022-09-29T04:50:30.073Z,996.53
2022-09-29T04:51:30.387Z,996.58
2022-09-29T04:52:30.684Z,996.50
2022-09-29T04:53:30.945Z,996.50
2022-09-29T04:54:35.411Z,996.59
2022-09-29T04:55:32.428Z,996.60
2022-09-29T04:56:31.776Z,996.55
2022-09-29T04:57:32.034Z,996.55
2022-09-29T04:58:32.327Z,996.63
2022-09-29T04:59:32.569Z,996.58
2022-09-29T05:00:32.965Z,996.60
2022-09-29T05:01:33.112Z,996.56
2022-09-29T05:02:33.399Z,996.56
2022-09-29T05:03:33.671Z,996.62
2022-09-29T05:04:33.936Z,996.54
2022-09-29T05:05:34.207Z,996.58
2022-09-29T05:06:34.489Z,996.57
2022-09-29T05:07:34.842Z,996.60
2022-09-29T05:08:35.100Z,996.60
2022-09-29T05:09:35.539Z,996.62
2022-09-29T05:10:35.635Z,996.59
2022-09-29T05:11:35.956Z,996.63
2022-09-29T05:12:36.221Z,996.65
2022-09-29T05:13:36.513Z,996.60
2022-09-29T05:14:36.802Z,996.64
2022-09-29T05:15:37.099Z,996.66
2022-09-29T05:16:37.462Z,996.66
2022-09-29T05:17:37.611Z,996.65
2022-09-29T05:18:37.901Z,996.69
2022-09-29T05:19:38.622Z,996.68
2022-09-29T05:20:44.748Z,996.68
2022-09-29T05:21:39.832Z,996.70
2022-09-29T05:22:39.092Z,996.66
2022-09-29T05:23:39.374Z,996.68
2022-09-29T05:24:40.585Z,996.74
2022-09-29T05:25:39.921Z,996.74
2022-09-29T05:26:40.243Z,996.73
2022-09-29T05:27:40.517Z,996.63
2022-09-29T05:28:40.781Z,996.72
2022-09-29T05:29:41.060Z,996.70
2022-09-29T05:30:41.336Z,996.70
2022-09-29T05:31:41.684Z,996.76
2022-09-29T05:32:41.835Z,996.77
2022-09-29T05:33:42.105Z,996.77
2022-09-29T05:34:42.384Z,996.75
2022-09-29T05:35:42.649Z,996.72
2022-09-29T05:36:42.987Z,996.75
2022-09-29T05:37:43.267Z,996.74
2022-09-29T05:38:43.574Z,996.78
2022-09-29T05:39:43.849Z,996.76
2022-09-29T05:40:44.268Z,996.74
2022-09-29T05:41:44.483Z,996.79
2022-09-29T05:42:44.799Z,996.79
2022-09-29T05:43:45.088Z,996.74
2022-09-29T05:44:45.370Z,996.76
2022-09-29T05:45:45.752Z,996.78
2022-09-29T05:46:45.970Z,996.78
2022-09-29T05:47:46.321Z,996.73
2022-09-29T05:48:46.499Z,996.70
2022-09-29T05:49:46.855Z,996.75
2022-09-29T05:50:47.063Z,996.77
2022-09-29T05:51:47.406Z,996.78
2022-09-29T05:52:47.591Z,996.73
2022-09-29T05:53:47.900Z,996.80
2022-09-29T05:54:48.259Z,996.80
2022-09-29T05:55:48.521Z,996.76
2022-09-29T05:56:48.793Z,996.76
2022-09-29T05:57:48.981Z,996.77
2022-09-29T05:58:49.319Z,996.77
2022-09-29T05:59:49.663Z,996.81
2022-09-29T06:00:50.005Z,996.78
2022-09-29T06:01:50.227Z,996.77
2022-09-29T06:02:50.507Z,996.74
2022-09-29T06:03:50.738Z,996.79
2022-09-29T06:04:51.064Z,996.83
2022-09-29T06:05:51.419Z,996.76
2022-09-29T06:06:51.770Z,996.79
2022-09-29T06:07:51.994Z,996.83
2022-09-29T06:08:52.245Z,996.85
2022-09-29T06:09:52.481Z,996.84
2022-09-29T06:10:52.713Z,996.78
2022-09-29T06:11:52.987Z,996.78
2022-09-29T06:12:53.255Z,996.85
2022-09-29T06:13:53.513Z,996.79
2022-09-29T06:14:53.715Z,996.90
2022-09-29T06:15:53.961Z,996.82
2022-09-29T06:16:54.337Z,996.85
2022-09-29T06:17:54.598Z,996.85
2022-09-29T06:18:54.861Z,996.83
2022-09-29T06:19:55.080Z,996.91
2022-09-29T06:20:55.486Z,996.89
2022-09-29T06:21:55.765Z,996.93
2022-09-29T06:22:56.019Z,996.84
2022-09-29T06:23:56.251Z,996.89
2022-09-29T06:24:56.639Z,996.91
2022-09-29T06:25:56.924Z,996.96
2022-09-29T06:26:57.206Z,996.85
2022-09-29T06:27:57.456Z,996.96
2022-09-29T06:28:57.677Z,996.91
2022-09-29T06:29:57.968Z,996.93
2022-09-29T06:30:58.242Z,996.97
2022-09-29T06:31:58.630Z,996.96
2022-09-29T06:32:58.813Z,996.93
2022-09-29T06:33:59.080Z,996.98
2022-09-29T06:34:59.346Z,996.96
2022-09-29T06:35:59.608Z,997.01
2022-09-29T06:36:59.874Z,997.03
2022-09-29T06:38:00.177Z,997.04
2022-09-29T06:39:00.459Z,997.00
2022-09-29T06:40:00.781Z,997.05
2022-09-29T06:41:01.098Z,996.97
2022-09-29T06:42:01.405Z,996.97
2022-09-29T06:43:01.651Z,997.06
2022-09-29T06:44:01.911Z,997.03
2022-09-29T06:45:02.280Z,997.02
2022-09-29T06:46:02.533Z,997.07
2022-09-29T06:47:02.774Z,997.09
2022-09-29T06:48:03.044Z,997.09
2022-09-29T06:49:03.323Z,997.08
2022-09-29T06:50:07.440Z,997.13
2022-09-29T06:51:09.864Z,997.18
2022-09-29T06:52:15.619Z,997.14
2022-09-29T06:53:05.446Z,997.18
2022-09-29T06:54:11.575Z,997.20
2022-09-29T06:55:06.022Z,997.14
2022-09-29T06:56:05.255Z,997.26
2022-09-29T06:57:05.601Z,997.20
2022-09-29T06:58:05.717Z,997.21
2022-09-29T06:59:05.967Z,997.26
2022-09-29T07:00:06.238Z,997.18
2022-09-29T07:01:06.606Z,997.28
2022-09-29T07:02:06.894Z,997.22
2022-09-29T07:03:07.158Z,997.31
2022-09-29T07:04:07.388Z,997.27
2022-09-29T07:05:07.669Z,997.30
2022-09-29T07:06:19.313Z,997.33
2022-09-29T07:07:09.189Z,997.25
2022-09-29T07:08:08.515Z,997.29
2022-09-29T07:09:08.808Z,997.31
2022-09-29T07:10:09.099Z,997.29
2022-09-29T07:11:09.361Z,997.34
2022-09-29T07:12:09.619Z,997.29
2022-09-29T07:13:09.888Z,997.32
2022-09-29T07:14:10.156Z,997.32
2022-09-29T07:15:10.436Z,997.29
2022-09-29T07:16:10.813Z,997.29
2022-09-29T07:17:10.937Z,997.23
2022-09-29T07:18:11.180Z,997.32
2022-09-29T07:19:11.462Z,997.35
2022-09-29T07:20:11.734Z,997.34
2022-09-29T07:21:12.030Z,997.32
2022-09-29T07:22:12.295Z,997.45
2022-09-29T07:23:12.592Z,997.41
2022-09-29T07:24:13.005Z,997.39
2022-09-29T07:25:23.026Z,997.36
2022-09-29T07:26:14.395Z,997.39
2022-09-29T07:27:13.685Z,997.36
2022-09-29T07:28:13.950Z,997.36
2022-09-29T07:29:15.845Z,997.41
2022-09-29T07:30:14.565Z,997.34
2022-09-29T07:31:15.987Z,997.35
2022-09-29T07:32:25.553Z,997.39
2022-09-29T07:33:16.476Z,997.45
2022-09-29T07:34:15.644Z,997.41
2022-09-29T07:35:15.916Z,997.45
2022-09-29T07:36:16.204Z,997.48
2022-09-29T07:37:16.476Z,997.50
2022-09-29T07:38:16.768Z,997.50
2022-09-29T07:39:17.116Z,997.53
2022-09-29T07:40:17.471Z,997.52
2022-09-29T07:41:17.616Z,997.56
2022-09-29T07:42:17.876Z,997.51
2022-09-29T07:43:18.120Z,997.55
2022-09-29T07:44:18.456Z,997.58
2022-09-29T07:45:18.576Z,997.62
2022-09-29T07:46:19.015Z,997.56
2022-09-29T07:47:19.177Z,997.54
2022-09-29T07:48:19.428Z,997.59
2022-09-29T07:49:19.741Z,997.51
2022-09-29T07:50:20.049Z,997.55
2022-09-29T07:51:20.308Z,997.54
2022-09-29T07:52:20.579Z,997.59
2022-09-29T07:53:20.837Z,997.59
2022-09-29T07:54:24.607Z,997.63
2022-09-29T07:55:22.370Z,997.63
2022-09-29T07:56:21.661Z,997.57
2022-09-29T07:57:21.918Z,997.65
2022-09-29T07:58:22.171Z,997.58
2022-09-29T07:59:22.447Z,997.69
2022-09-29T08:00:22.681Z,997.60
2022-09-29T08:01:23.060Z,997.67
2022-09-29T08:02:23.266Z,997.70
2022-09-29T08:03:23.522Z,997.69
2022-09-29T08:04:23.786Z,997.71
2022-09-29T08:05:24.050Z,997.70
2022-09-29T08:06:24.300Z,997.72
2022-09-29T08:07:24.566Z,997.68
2022-09-29T08:08:24.817Z,997.72
2022-09-29T08:09:36.514Z,997.78
2022-09-29T08:10:26.384Z,997.80
2022-09-29T08:11:31.449Z,997.73
2022-09-29T08:12:37.522Z,997.69
2022-09-29T08:13:27.314Z,997.78
2022-09-29T08:14:26.614Z,997.81
2022-09-29T08:15:26.866Z,997.72
2022-09-29T08:16:27.216Z,997.72
2022-09-29T08:17:27.349Z,997.75
2022-09-29T08:18:27.598Z,997.81
2022-09-29T08:19:27.851Z,997.80
2022-09-29T08:20:28.113Z,997.83
2022-09-29T08:21:28.360Z,997.84
2022-09-29T08:22:28.596Z,997.84
2022-09-29T08:23:28.851Z,997.73
2022-09-29T08:24:29.103Z,997.80
2022-09-29T08:25:29.348Z,997.82
2022-09-29T08:26:39.663Z,997.76
2022-09-29T08:27:30.932Z,997.82
2022-09-29T08:28:32.454Z,997.93
2022-09-29T08:29:42.903Z,997.83
2022-09-29T08:30:31.987Z,997.86
2022-09-29T08:31:31.216Z,997.82
2022-09-29T08:32:31.458Z,997.81
2022-09-29T08:33:31.890Z,997.91
2022-09-29T08:34:32.091Z,997.86
2022-09-29T08:35:32.310Z,997.90
2022-09-29T08:36:33.023Z,997.87
2022-09-29T08:37:35.161Z,997.86
2022-09-29T08:38:33.087Z,997.92
2022-09-29T08:39:33.352Z,997.85
2022-09-29T08:40:33.666Z,997.89
2022-09-29T08:41:34.223Z,997.90
2022-09-29T08:42:45.733Z,997.90
2022-09-29T08:43:35.627Z,997.87
2022-09-29T08:44:38.865Z,997.86
2022-09-29T08:45:35.387Z,997.89
2022-09-29T08:46:36.540Z,997.92
2022-09-29T08:47:45.739Z,997.89
2022-09-29T08:48:38.258Z,997.87
2022-09-29T08:49:36.863Z,997.93
2022-09-29T08:50:36.473Z,997.93
2022-09-29T08:51:42.483Z,997.93
2022-09-29T08:52:50.383Z,997.96
2022-09-29T08:53:38.217Z,998.02
2022-09-29T08:54:39.824Z,998.03
2022-09-29T08:55:37.947Z,997.99
2022-09-29T08:56:38.207Z,998.02
2022-09-29T08:57:38.458Z,998.04
2022-09-29T08:58:38.712Z,998.08
2022-09-29T08:59:38.979Z,998.04
2022-09-29T09:00:39.298Z,998.05
2022-09-29T09:01:39.652Z,998.03
2022-09-29T09:02:39.834Z,998.07
2022-09-29T09:03:40.141Z,998.09
2022-09-29T09:04:40.396Z,998.06
2022-09-29T09:05:40.623Z,998.09
2022-09-29T09:06:40.883Z,998.12
2022-09-29T09:07:41.139Z,998.05
2022-09-29T09:08:41.475Z,998.13
2022-09-29T09:09:41.626Z,998.07
2022-09-29T09:10:41.903Z,998.15
2022-09-29T09:11:42.213Z,998.13
2022-09-29T09:12:42.462Z,998.18
2022-09-29T09:13:42.704Z,998.11
2022-09-29T09:14:42.974Z,998.10
2022-09-29T09:15:43.256Z,998.15
2022-09-29T09:16:43.563Z,998.16
2022-09-29T09:17:43.850Z,998.11
2022-09-29T09:18:44.138Z,998.15
2022-09-29T09:19:44.477Z,998.14
2022-09-29T09:20:44.627Z,998.15
2022-09-29T09:21:45.076Z,998.14
2022-09-29T09:22:45.172Z,998.12
2022-09-29T09:23:45.435Z,998.10
2022-09-29T09:24:45.675Z,998.16
2022-09-29T09:25:45.928Z,998.13
2022-09-29T09:26:46.179Z,998.21
2022-09-29T09:27:46.428Z,998.21
2022-09-29T09:28:46.694Z,998.12
2022-09-29T09:29:46.938Z,998.17
2022-09-29T09:30:47.276Z,998.18
2022-09-29T09:31:47.520Z,998.18
2022-09-29T09:32:47.788Z,998.11
2022-09-29T09:33:57.957Z,998.12
2022-09-29T09:34:49.373Z,998.19
2022-09-29T09:35:57.011Z,998.15
2022-09-29T09:36:58.897Z,998.18
2022-09-29T09:37:50.265Z,998.15
2022-09-29T09:38:49.482Z,998.10
2022-09-29T09:39:49.722Z,998.17
2022-09-29T09:40:50.002Z,998.15
2022-09-29T09:41:50.263Z,998.13
2022-09-29T09:42:50.502Z,998.20
2022-09-29T09:43:50.743Z,998.13
2022-09-29T09:44:51.047Z,998.16
2022-09-29T09:45:51.360Z,998.21
2022-09-29T09:46:51.614Z,998.16
2022-09-29T09:47:51.864Z,998.22
2022-09-29T09:48:52.142Z,998.23
2022-09-29T09:49:52.393Z,998.24
2022-09-29T09:50:52.675Z,998.21
2022-09-29T09:51:52.924Z,998.26
2022-09-29T09:52:53.178Z,998.28
2022-09-29T09:53:53.426Z,998.32
2022-09-29T09:54:53.689Z,998.31
2022-09-29T09:55:53.978Z,998.36
2022-09-29T09:56:54.234Z,998.35
2022-09-29T09:57:54.493Z,998.35
2022-09-29T09:58:54.752Z,998.32
2022-09-29T09:59:56.713Z,998.37
2022-09-29T10:00:55.426Z,998.35
2022-09-29T10:01:55.740Z,998.33
2022-09-29T10:02:55.980Z,998.36
2022-09-29T10:03:56.229Z,998.32
2022-09-29T10:04:56.490Z,998.36
2022-09-29T10:05:57.211Z,998.28
2022-09-29T10:06:57.036Z,998.35
2022-09-29T10:07:57.300Z,998.34
2022-09-29T10:08:57.628Z,998.33
2022-09-29T10:09:57.889Z,998.36
2022-09-29T10:10:59.630Z,998.40
2022-09-29T10:11:58.422Z,998.37
2022-09-29T10:13:00.003Z,998.36
2022-09-29T10:13:58.995Z,998.33
2022-09-29T10:14:59.259Z,998.44
2022-09-29T10:15:59.602Z,998.36
2022-09-29T10:16:59.905Z,998.40
2022-09-29T10:18:00.175Z,998.39
2022-09-29T10:19:00.450Z,998.46
2022-09-29T10:20:00.727Z,998.44
2022-09-29T10:21:01.017Z,998.42
2022-09-29T10:22:01.266Z,998.42
2022-09-29T10:23:01.865Z,998.42
2022-09-29T10:24:01.855Z,998.44
2022-09-29T10:25:02.126Z,998.45
2022-09-29T10:26:02.419Z,998.49
2022-09-29T10:27:02.951Z,998.49
2022-09-29T10:28:04.506Z,998.52
2022-09-29T10:29:04.223Z,998.54
2022-09-29T10:30:03.588Z,998.55
2022-09-29T10:31:04.628Z,998.63
2022-09-29T10:32:04.179Z,998.61
2022-09-29T10:33:09.138Z,998.57
2022-09-29T10:34:05.797Z,998.58
2022-09-29T10:35:05.109Z,998.60
2022-09-29T10:36:05.409Z,998.63
2022-09-29T10:37:05.735Z,998.69
2022-09-29T10:38:05.969Z,998.71
2022-09-29T10:39:06.250Z,998.69
2022-09-29T10:40:06.488Z,998.73
2022-09-29T10:41:06.780Z,998.71
2022-09-29T10:42:07.030Z,998.59
2022-09-29T10:43:07.311Z,998.60
2022-09-29T10:44:07.573Z,998.63
2022-09-29T10:45:07.851Z,998.62
2022-09-29T10:46:08.217Z,998.64
2022-09-29T10:47:08.350Z,998.63
2022-09-29T10:48:08.610Z,998.65
2022-09-29T10:49:08.881Z,998.65
2022-09-29T10:50:09.238Z,998.67
2022-09-29T10:51:09.394Z,998.68
2022-09-29T10:52:09.646Z,998.65
2022-09-29T10:53:12.598Z,998.62
2022-09-29T10:54:10.225Z,998.64
2022-09-29T10:55:10.485Z,998.65
2022-09-29T10:56:10.753Z,998.67
2022-09-29T10:57:11.043Z,998.63
2022-09-29T10:58:11.278Z,998.64
2022-09-29T10:59:11.534Z,998.63
2022-09-29T11:00:11.776Z,998.65
2022-09-29T11:01:12.114Z,998.68
2022-09-29T11:02:12.424Z,998.65
2022-09-29T11:03:12.706Z,998.73
2022-09-29T11:04:13.004Z,998.63
2022-09-29T11:05:13.238Z,998.64
2022-09-29T11:06:13.500Z,998.66
2022-09-29T11:07:13.772Z,998.67
2022-09-29T11:08:14.019Z,998.72
2022-09-29T11:09:14.459Z,998.71
2022-09-29T11:10:14.619Z,998.66
2022-09-29T11:11:14.890Z,998.67
2022-09-29T11:12:15.151Z,998.66
2022-09-29T11:13:15.411Z,998.74
2022-09-29T11:14:15.671Z,998.76
2022-09-29T11:15:15.939Z,998.75
2022-09-29T11:16:16.234Z,998.78
2022-09-29T11:17:16.482Z,998.82
2022-09-29T11:18:16.721Z,998.77
2022-09-29T11:19:17.005Z,998.81
2022-09-29T11:20:17.253Z,998.77
2022-09-29T11:21:17.551Z,998.82
2022-09-29T11:22:17.821Z,998.78
2022-09-29T11:23:18.056Z,998.80
2022-09-29T11:24:18.314Z,998.77
2022-09-29T11:25:18.579Z,998.84
2022-09-29T11:26:18.846Z,998.85
2022-09-29T11:27:19.103Z,998.81
2022-09-29T11:28:19.351Z,998.83
2022-09-29T11:29:19.622Z,998.87
2022-09-29T11:30:19.966Z,998.82
2022-09-29T11:31:20.314Z,998.85
2022-09-29T11:32:20.527Z,998.85
2022-09-29T11:33:20.817Z,998.92
2022-09-29T11:34:21.259Z,998.86
2022-09-29T11:35:21.406Z,998.91
2022-09-29T11:36:21.714Z,998.90
2022-09-29T11:37:21.955Z,998.91
2022-09-29T11:38:22.239Z,998.91
2022-09-29T11:39:22.501Z,998.88
2022-09-29T11:40:22.776Z,998.92
2022-09-29T11:41:23.030Z,998.90
2022-09-29T11:42:23.298Z,998.87
2022-09-29T11:43:23.550Z,998.94
2022-09-29T11:44:23.799Z,998.97
2022-09-29T11:45:24.091Z,998.92
2022-09-29T11:46:24.422Z,998.90
2022-09-29T11:47:24.670Z,998.89
2022-09-29T11:48:27.323Z,998.85
2022-09-29T11:49:26.254Z,998.87
2022-09-29T11:50:25.591Z,998.81
2022-09-29T11:51:25.841Z,998.83
2022-09-29T11:52:26.113Z,998.84
2022-09-29T11:53:26.372Z,998.88
2022-09-29T11:54:26.643Z,998.88
2022-09-29T11:55:26.934Z,998.91
2022-09-29T11:56:27.191Z,998.92
2022-09-29T11:57:27.425Z,998.93
2022-09-29T11:58:27.678Z,998.91
2022-09-29T11:59:27.928Z,998.90
2022-09-29T12:00:28.207Z,998.97
2022-09-29T12:01:28.458Z,998.89
2022-09-29T12:02:28.768Z,998.86
2022-09-29T12:03:29.130Z,998.94
2022-09-29T12:04:29.384Z,998.89
2022-09-29T12:05:29.659Z,998.91
2022-09-29T12:06:29.916Z,998.90
2022-09-29T12:07:30.178Z,998.86
2022-09-29T12:08:30.437Z,998.87
2022-09-29T12:09:30.867Z,998.89
2022-09-29T12:10:31.479Z,998.96
2022-09-29T12:11:50.902Z,998.97
2022-09-29T12:12:32.639Z,999.00
2022-09-29T12:13:32.111Z,998.91
2022-09-29T12:14:32.202Z,998.97
2022-09-29T12:15:35.086Z,998.94
2022-09-29T12:16:34.562Z,998.94
2022-09-29T12:17:33.031Z,998.93
2022-09-29T12:18:34.043Z,998.93
2022-09-29T12:19:33.677Z,999.00
2022-09-29T12:20:35.402Z,998.91
2022-09-29T12:21:34.295Z,998.93
2022-09-29T12:22:36.837Z,998.91
2022-09-29T12:23:35.635Z,998.93
2022-09-29T12:24:35.880Z,998.97
2022-09-29T12:25:35.385Z,998.92
2022-09-29T12:26:35.664Z,998.91
2022-09-29T12:27:36.665Z,998.99
2022-09-29T12:28:36.155Z,998.97
2022-09-29T12:29:36.416Z,998.92
2022-09-29T12:30:36.713Z,998.93
2022-09-29T12:31:36.968Z,998.98
2022-09-29T12:32:37.245Z,998.96
2022-09-29T12:33:37.507Z,998.97
2022-09-29T12:34:37.768Z,998.96
2022-09-29T12:35:38.039Z,999.00
2022-09-29T12:36:38.270Z,998.95
2022-09-29T12:37:38.558Z,998.96
2022-09-29T12:38:38.842Z,998.96
2022-09-29T12:39:39.097Z,999.02
2022-09-29T12:40:39.361Z,998.99
2022-09-29T12:41:39.622Z,999.04
2022-09-29T12:42:39.880Z,999.02
2022-09-29T12:43:40.141Z,999.01
2022-09-29T12:44:40.411Z,999.02
2022-09-29T12:45:40.692Z,999.00
2022-09-29T12:46:40.952Z,999.03
2022-09-29T12:47:41.233Z,999.02
2022-09-29T12:48:41.491Z,999.05
2022-09-29T12:49:41.753Z,999.02
2022-09-29T12:50:42.014Z,999.07
2022-09-29T12:51:42.311Z,999.02
2022-09-29T12:52:42.552Z,999.06
2022-09-29T12:53:42.813Z,999.05
2022-09-29T12:54:43.081Z,999.09
2022-09-29T12:55:43.407Z,999.15
2022-09-29T12:56:43.645Z,999.14
2022-09-29T12:57:43.909Z,999.14
2022-09-29T12:58:44.215Z,999.13
2022-09-29T12:59:44.485Z,999.16
2022-09-29T13:00:44.747Z,999.17
2022-09-29T13:01:45.061Z,999.17
2022-09-29T13:02:45.246Z,999.15
2022-09-29T13:03:45.498Z,999.20
2022-09-29T13:04:45.784Z,999.17
2022-09-29T13:05:46.025Z,999.17
2022-09-29T13:06:46.281Z,999.20
2022-09-29T13:07:46.550Z,999.19
2022-09-29T13:08:46.810Z,999.19
2022-09-29T13:09:47.108Z,999.22
2022-09-29T13:10:47.359Z,999.26
2022-09-29T13:11:47.618Z,999.26
2022-09-29T13:12:47.869Z,999.28
2022-09-29T13:13:48.241Z,999.28
2022-09-29T13:14:48.395Z,999.28
2022-09-29T13:15:48.664Z,999.29
2022-09-29T13:16:48.969Z,999.25
2022-09-29T13:17:49.360Z,999.29
2022-09-29T13:18:59.819Z,999.32
2022-09-29T13:19:57.680Z,999.34
2022-09-29T13:20:51.062Z,999.34
2022-09-29T13:21:50.337Z,999.33
2022-09-29T13:22:50.573Z,999.30
2022-09-29T13:23:50.843Z,999.32
2022-09-29T13:24:52.504Z,999.31
2022-09-29T13:25:51.320Z,999.27
2022-09-29T13:26:51.564Z,999.29
2022-09-29T13:27:51.838Z,999.28
2022-09-29T13:28:52.085Z,999.29
2022-09-29T13:29:52.366Z,999.27
2022-09-29T13:30:52.659Z,999.28
2022-09-29T13:31:52.951Z,999.24
2022-09-29T13:32:53.195Z,999.30
2022-09-29T13:33:53.438Z,999.30
2022-09-29T13:34:53.697Z,999.26
2022-09-29T13:35:53.927Z,999.31
2022-09-29T13:36:54.194Z,999.31
2022-09-29T13:37:54.447Z,999.30
2022-09-29T13:38:54.708Z,999.30
2022-09-29T13:39:59.391Z,999.32
2022-09-29T13:40:56.192Z,999.36
2022-09-29T13:41:55.473Z,999.35
2022-09-29T13:42:55.760Z,999.33
2022-09-29T13:43:56.011Z,999.35
2022-09-29T13:44:56.286Z,999.37
2022-09-29T13:45:56.549Z,999.37
2022-09-29T13:46:56.790Z,999.40
2022-09-29T13:47:57.032Z,999.43
2022-09-29T13:48:57.281Z,999.34
2022-09-29T13:49:57.539Z,999.44
2022-09-29T13:51:01.784Z,999.45
2022-09-29T13:51:59.117Z,999.36
2022-09-29T13:52:58.394Z,999.41
2022-09-29T13:53:58.690Z,999.43
2022-09-29T13:54:58.933Z,999.39
2022-09-29T13:55:59.178Z,999.48
2022-09-29T13:56:59.493Z,999.48
2022-09-29T13:57:59.745Z,999.43
2022-09-29T13:59:00.004Z,999.47
2022-09-29T14:00:00.269Z,999.47
2022-09-29T14:01:00.610Z,999.46
2022-09-29T14:02:00.897Z,999.42
2022-09-29T14:03:01.376Z,999.47
2022-09-29T14:04:01.515Z,999.42
2022-09-29T14:05:01.808Z,999.46
2022-09-29T14:06:08.816Z,999.44
2022-09-29T14:07:04.141Z,999.47
2022-09-29T14:08:03.358Z,999.48
2022-09-29T14:09:03.014Z,999.50
2022-09-29T14:10:03.279Z,999.50
2022-09-29T14:11:03.770Z,999.46
2022-09-29T14:12:03.861Z,999.47
2022-09-29T14:13:04.158Z,999.51
2022-09-29T14:14:04.392Z,999.50
2022-09-29T14:15:05.371Z,999.50
2022-09-29T14:20:50.485Z,0.00
2022-09-29T14:21:49.811Z,0.00
2022-09-29T14:22:49.768Z,0.00
2022-09-29T14:23:49.635Z,0.00
2022-09-29T14:24:50.428Z,0.00
2022-09-29T14:25:49.894Z,0.00
2022-09-29T14:26:52.008Z,0.00
2022-09-29T14:27:49.878Z,0.00
2022-09-29T14:28:49.678Z,0.00
2022-09-29T14:29:49.777Z,0.00
2022-09-29T14:30:49.913Z,0.00
2022-09-29T14:31:49.702Z,0.00
2022-09-29T14:32:49.829Z,0.00
2022-09-29T14:33:49.761Z,0.00
2022-09-29T14:34:50.021Z,0.00
2022-09-29T14:35:49.803Z,0.00
2022-09-29T14:36:49.807Z,0.00
2022-09-29T14:37:49.982Z,0.00
2022-09-29T14:39:02.736Z,0.00
2022-09-29T14:39:51.005Z,0.00
2022-09-29T14:40:49.871Z,0.00
2022-09-29T14:41:50.111Z,0.00
2022-09-29T14:42:50.026Z,0.00
2022-09-29T14:43:49.827Z,0.00
2022-09-29T14:44:50.174Z,0.00
2022-09-29T14:45:50.054Z,0.00
2022-09-29T14:46:49.875Z,0.00
2022-09-29T14:48:50.686Z,0.00
2022-09-29T14:49:50.346Z,0.00
2022-09-29T14:50:50.208Z,0.00
2022-09-29T14:51:49.999Z,0.00
2022-09-29T14:52:49.959Z,0.00
2022-09-29T14:53:50.457Z,0.00
2022-09-29T14:55:11.152Z,0.00